Time;durP1;ratioP1;P1;durP2;ratioP2;P2;SDS_P1;SDS_P2;PMS_P1;PMS_P2;Temp;Humidity;BMP_temperature;BMP_pressure;BME280_temperature;BME280_humidity;BME280_pressure;Samples;Min_cycle;Max_cycle;Signal;HPM_P1;HPM_P2
2023/09/06 00:01:23;;;;;;;14.90;5.03;;;;;;;;;;5011781;28;20324;-85
2023/09/06 00:03:51;;;;;;;14.77;5.20;;;;;;;;;;5011849;28;20623;-84
2023/09/06 00:06:18;;;;;;;18.40;5.85;;;;;;;;;;5011654;28;20670;-85
2023/09/06 00:08:45;;;;;;;17.50;5.80;;;;;;;;;;5011908;28;20217;-85
2023/09/06 00:11:12;;;;;;;20.42;5.72;;;;;;;;;;5012251;28;20197;-84
2023/09/06 00:13:40;;;;;;;23.30;5.50;;;;;;;;;;5011360;28;20365;-86
2023/09/06 00:16:09;;;;;;;19.52;5.00;;;;;;;;;;5014002;28;20239;-87
2023/09/06 00:18:37;;;;;;;20.33;5.45;;;;;;;;;;5015474;28;20201;-87
2023/09/06 00:21:05;;;;;;;17.95;5.88;;;;;;;;;;5015191;28;20202;-86
2023/09/06 00:23:33;;;;;;;17.30;5.63;;;;;;;;;;5015069;28;20201;-86
2023/09/06 00:26:01;;;;;;;14.38;4.57;;;;;;;;;;5015055;28;20205;-86
2023/09/06 00:28:28;;;;;;;14.75;5.30;;;;;;;;;;5015413;28;20227;-85
2023/09/06 00:30:56;;;;;;;15.68;4.78;;;;;;;;;;5014748;28;20288;-86
2023/09/06 00:33:26;;;;;;;21.23;5.10;;;;;;;;;;5014850;28;20562;-86
2023/09/06 00:35:55;;;;;;;18.88;5.20;;;;;;;;;;5015364;28;20317;-86
2023/09/06 00:38:22;;;;;;;16.17;4.95;;;;;;;;;;5014875;28;20209;-86
2023/09/06 00:40:51;;;;;;;18.83;5.57;;;;;;;;;;5014952;28;20786;-87
2023/09/06 00:43:18;;;;;;;10.95;4.68;;;;;;;;;;5014700;28;20303;-86
2023/09/06 00:45:48;;;;;;;16.75;5.30;;;;;;;;;;5014581;28;20252;-85
2023/09/06 00:48:16;;;;;;;16.35;5.32;;;;;;;;;;5015018;28;20197;-85
2023/09/06 00:50:45;;;;;;;18.88;5.13;;;;;;;;;;5014703;28;20915;-85
2023/09/06 00:53:12;;;;;;;13.63;4.95;;;;;;;;;;5014710;28;20677;-86
2023/09/06 00:55:41;;;;;;;15.57;4.90;;;;;;;;;;5014124;28;20197;-86
2023/09/06 00:58:09;;;;;;;15.48;4.63;;;;;;;;;;5014039;28;20247;-86
2023/09/06 01:00:37;;;;;;;17.63;5.10;;;;;;;;;;5014165;28;20347;-86
2023/09/06 01:03:04;;;;;;;14.32;4.70;;;;;;;;;;5014398;28;20662;-86
2023/09/06 01:05:34;;;;;;;11.30;4.78;;;;;;;;;;4999815;28;20202;-85
2023/09/06 01:08:05;;;;;;;12.45;4.65;;;;;;;;;;5013092;28;20285;-85
2023/09/06 01:10:35;;;;;;;19.10;4.95;;;;;;;;;;5014029;28;20197;-86
2023/09/06 01:13:02;;;;;;;12.80;4.80;;;;;;;;;;5013968;28;20247;-86
2023/09/06 01:15:30;;;;;;;15.63;5.13;;;;;;;;;;5014189;28;20224;-85
2023/09/06 01:17:59;;;;;;;17.05;4.97;;;;;;;;;;5014130;28;20205;-86
2023/09/06 01:20:33;;;;;;;22.00;5.63;;;;;;;;;;5014197;28;20312;-86
2023/09/06 01:23:07;;;;;;;10.00;4.75;;;;;;;;;;5014271;28;20197;-85
2023/09/06 01:25:36;;;;;;;12.73;4.43;;;;;;;;;;5013988;28;20192;-86
2023/09/06 01:28:04;;;;;;;19.80;5.57;;;;;;;;;;5012880;28;20217;-86
2023/09/06 01:30:31;;;;;;;13.65;4.95;;;;;;;;;;5013443;28;20208;-86
2023/09/06 01:32:58;;;;;;;13.75;5.38;;;;;;;;;;5014240;28;20288;-86
2023/09/06 01:35:25;;;;;;;12.85;4.93;;;;;;;;;;5013577;28;20193;-85
2023/09/06 01:37:52;;;;;;;13.00;4.80;;;;;;;;;;5013557;28;20284;-85
2023/09/06 01:40:21;;;;;;;15.05;5.20;;;;;;;;;;5013429;28;20696;-85
2023/09/06 01:42:50;;;;;;;12.35;5.05;;;;;;;;;;5013316;28;20205;-86
2023/09/06 01:45:17;;;;;;;15.30;5.25;;;;;;;;;;5013651;28;20659;-86
2023/09/06 01:47:46;;;;;;;14.05;4.75;;;;;;;;;;5013306;28;20209;-86
2023/09/06 01:50:13;;;;;;;14.25;5.00;;;;;;;;;;5013154;28;20204;-85
2023/09/06 01:52:41;;;;;;;15.65;5.00;;;;;;;;;;5013676;28;20225;-84
2023/09/06 01:55:09;;;;;;;11.23;5.38;;;;;;;;;;5013629;28;20201;-86
2023/09/06 01:57:36;;;;;;;19.23;6.03;;;;;;;;;;5013131;28;20205;-86
2023/09/06 02:02:47;;;;;;;14.90;5.57;;;;;;;;;;5012813;28;20193;-86
2023/09/06 02:05:15;;;;;;;13.73;5.53;;;;;;;;;;5013158;28;20558;-85
2023/09/06 02:07:42;;;;;;;13.85;5.40;;;;;;;;;;5013183;28;20619;-86
2023/09/06 02:10:10;;;;;;;18.25;6.05;;;;;;;;;;5012836;28;20204;-87
2023/09/06 02:12:38;;;;;;;18.63;5.78;;;;;;;;;;5013194;28;20204;-85
2023/09/06 02:15:08;;;;;;;17.73;6.05;;;;;;;;;;5013465;28;20641;-86
2023/09/06 02:17:35;;;;;;;12.32;5.75;;;;;;;;;;5012696;28;20284;-85
2023/09/06 02:20:11;;;;;;;18.52;5.47;;;;;;;;;;5012932;28;20241;-86
2023/09/06 02:22:39;;;;;;;19.33;5.60;;;;;;;;;;5012835;28;20201;-85
2023/09/06 02:25:07;;;;;;;21.33;5.85;;;;;;;;;;5012737;28;20236;-85
2023/09/06 02:27:34;;;;;;;15.88;6.07;;;;;;;;;;5012602;28;20216;-85
2023/09/06 02:30:06;;;;;;;19.27;5.68;;;;;;;;;;5012590;28;20203;-85
2023/09/06 02:32:35;;;;;;;15.45;5.43;;;;;;;;;;5013157;28;20231;-85
2023/09/06 02:35:02;;;;;;;17.75;5.93;;;;;;;;;;5012970;28;20288;-85
2023/09/06 02:37:29;;;;;;;16.35;6.13;;;;;;;;;;5012097;28;20196;-85
2023/09/06 02:39:57;;;;;;;18.27;6.03;;;;;;;;;;5011623;28;20776;-84
2023/09/06 02:42:24;;;;;;;16.67;6.57;;;;;;;;;;5012624;28;20629;-85
2023/09/06 02:44:51;;;;;;;21.98;6.25;;;;;;;;;;5012681;28;20203;-85
2023/09/06 02:47:25;;;;;;;19.92;6.22;;;;;;;;;;5011908;28;20213;-85
2023/09/06 02:49:55;;;;;;;18.33;6.05;;;;;;;;;;5012580;28;20209;-84
2023/09/06 02:52:28;;;;;;;17.48;6.03;;;;;;;;;;5012124;28;20758;-85
2023/09/06 02:54:55;;;;;;;16.25;5.75;;;;;;;;;;5011839;28;20207;-84
2023/09/06 02:57:23;;;;;;;20.50;6.70;;;;;;;;;;5012102;28;20677;-85
2023/09/06 02:59:51;;;;;;;17.15;6.15;;;;;;;;;;5012054;28;20268;-86
2023/09/06 03:02:19;;;;;;;14.57;5.53;;;;;;;;;;5011974;28;20292;-85
2023/09/06 03:04:46;;;;;;;18.65;6.03;;;;;;;;;;5012603;28;20255;-85
2023/09/06 03:07:15;;;;;;;16.45;5.50;;;;;;;;;;5012268;28;20201;-84
2023/09/06 03:09:44;;;;;;;15.20;5.95;;;;;;;;;;5011664;28;20209;-85
2023/09/06 03:12:12;;;;;;;14.90;5.68;;;;;;;;;;5012024;28;20197;-85
2023/09/06 03:14:44;;;;;;;16.45;7.00;;;;;;;;;;5012021;28;20201;-85
2023/09/06 03:17:11;;;;;;;13.60;6.65;;;;;;;;;;5012031;28;20292;-84
2023/09/06 03:19:40;;;;;;;15.13;6.47;;;;;;;;;;5011977;28;20216;-85
2023/09/06 03:22:09;;;;;;;12.60;6.07;;;;;;;;;;5011616;28;20197;-85
2023/09/06 03:24:40;;;;;;;19.90;5.90;;;;;;;;;;5011732;28;20259;-85
2023/09/06 03:27:08;;;;;;;16.55;6.00;;;;;;;;;;5011948;28;20201;-85
2023/09/06 03:29:37;;;;;;;11.15;5.40;;;;;;;;;;5011894;28;20197;-84
2023/09/06 03:32:07;;;;;;;19.08;6.22;;;;;;;;;;5011633;28;20200;-84
2023/09/06 03:34:35;;;;;;;15.93;5.80;;;;;;;;;;5012681;28;20197;-85
2023/09/06 03:37:05;;;;;;;15.52;6.28;;;;;;;;;;5011805;28;20276;-85
2023/09/06 03:39:37;;;;;;;15.90;5.93;;;;;;;;;;5011183;28;20248;-84
2023/09/06 03:42:08;;;;;;;15.98;5.72;;;;;;;;;;5011811;28;20204;-85
2023/09/06 03:44:35;;;;;;;17.80;6.18;;;;;;;;;;5012134;28;20198;-85
2023/09/06 03:47:05;;;;;;;14.95;6.50;;;;;;;;;;5011532;28;20189;-84
2023/09/06 03:49:35;;;;;;;17.88;6.65;;;;;;;;;;5011977;28;20201;-84
2023/09/06 03:52:03;;;;;;;11.25;5.85;;;;;;;;;;5015035;28;20208;-84
2023/09/06 03:54:30;;;;;;;19.13;6.18;;;;;;;;;;5015207;28;20578;-84
2023/09/06 03:56:57;;;;;;;18.67;6.78;;;;;;;;;;5015301;28;20742;-84
2023/09/06 03:59:26;;;;;;;12.55;5.65;;;;;;;;;;5015362;28;20299;-85
2023/09/06 04:01:55;;;;;;;14.07;6.65;;;;;;;;;;5015305;28;20236;-84
2023/09/06 04:04:23;;;;;;;16.13;6.80;;;;;;;;;;5015515;28;20646;-84
2023/09/06 04:06:50;;;;;;;14.85;6.60;;;;;;;;;;5014856;28;20201;-85
2023/09/06 04:09:18;;;;;;;18.77;6.65;;;;;;;;;;5015412;28;20205;-84
2023/09/06 04:11:46;;;;;;;11.93;5.75;;;;;;;;;;5015998;28;20197;-84
2023/09/06 04:14:14;;;;;;;19.08;6.38;;;;;;;;;;5015328;28;20197;-84
2023/09/06 04:16:42;;;;;;;13.73;5.88;;;;;;;;;;5014703;28;20197;-84
2023/09/06 04:19:09;;;;;;;16.65;6.20;;;;;;;;;;5015124;28;20620;-84
2023/09/06 04:21:37;;;;;;;16.13;5.72;;;;;;;;;;5014565;28;20232;-85
2023/09/06 04:24:07;;;;;;;13.93;5.57;;;;;;;;;;5015186;28;20201;-84
2023/09/06 04:26:34;;;;;;;11.90;5.75;;;;;;;;;;5015043;28;20283;-84
2023/09/06 04:29:03;;;;;;;13.38;6.00;;;;;;;;;;5014850;28;20911;-85
2023/09/06 04:31:30;;;;;;;13.93;6.25;;;;;;;;;;5014858;28;20292;-85
2023/09/06 04:34:00;;;;;;;11.73;6.43;;;;;;;;;;5014988;28;20193;-84
2023/09/06 04:36:27;;;;;;;16.30;6.13;;;;;;;;;;5014242;28;20292;-84
2023/09/06 04:38:56;;;;;;;12.38;5.85;;;;;;;;;;5014558;28;20193;-84
2023/09/06 04:41:23;;;;;;;12.55;5.53;;;;;;;;;;5014519;28;20853;-84
2023/09/06 04:43:50;;;;;;;13.23;5.65;;;;;;;;;;5014672;28;20225;-85
2023/09/06 04:46:17;;;;;;;19.23;6.88;;;;;;;;;;5014291;28;20753;-84
2023/09/06 04:48:45;;;;;;;15.52;6.57;;;;;;;;;;5014461;28;20197;-84
2023/09/06 04:51:14;;;;;;;15.05;6.15;;;;;;;;;;5014190;28;20221;-84
2023/09/06 04:53:41;;;;;;;14.60;5.70;;;;;;;;;;5014144;28;20283;-84
2023/09/06 04:56:09;;;;;;;14.50;5.90;;;;;;;;;;5014306;28;20292;-85
2023/09/06 04:58:36;;;;;;;12.60;5.35;;;;;;;;;;5014773;28;20297;-84
2023/09/06 05:01:05;;;;;;;18.27;5.30;;;;;;;;;;5013357;28;20244;-84
2023/09/06 05:03:33;;;;;;;18.75;5.68;;;;;;;;;;4996649;28;20201;-84
2023/09/06 05:06:01;;;;;;;9.68;5.00;;;;;;;;;;5014028;28;20248;-84
2023/09/06 05:08:32;;;;;;;14.20;6.20;;;;;;;;;;5014207;28;20264;-85
2023/09/06 05:10:59;;;;;;;12.82;5.53;;;;;;;;;;5014843;28;20597;-87
2023/09/06 05:13:27;;;;;;;13.60;6.25;;;;;;;;;;4998029;28;20263;-85
2023/09/06 05:16:01;;;;;;;13.40;5.63;;;;;;;;;;5024490;28;20295;-86
2023/09/06 05:18:28;;;;;;;17.65;6.07;;;;;;;;;;5019006;28;20204;-86
2023/09/06 05:20:59;;;;;;;18.55;6.65;;;;;;;;;;5013974;28;20232;-87
2023/09/06 05:23:28;;;;;;;14.38;6.70;;;;;;;;;;5014921;28;20197;-87
2023/09/06 05:25:56;;;;;;;14.85;6.82;;;;;;;;;;5014205;28;20744;-85
2023/09/06 05:28:23;;;;;;;14.65;7.00;;;;;;;;;;5013055;28;20288;-84
2023/09/06 05:30:53;;;;;;;15.80;6.43;;;;;;;;;;5010523;28;20217;-83
2023/09/06 05:33:20;;;;;;;12.70;6.53;;;;;;;;;;5007999;28;20288;-84
2023/09/06 05:35:47;;;;;;;17.58;6.47;;;;;;;;;;5012479;28;20631;-84
2023/09/06 05:38:14;;;;;;;12.38;6.90;;;;;;;;;;5012800;28;20224;-85
2023/09/06 05:40:43;;;;;;;17.50;6.32;;;;;;;;;;5007237;28;20315;-85
2023/09/06 05:43:11;;;;;;;14.15;6.40;;;;;;;;;;5005748;28;20212;-77
2023/09/06 05:45:39;;;;;;;16.75;6.82;;;;;;;;;;5009921;28;20296;-80
2023/09/06 05:48:06;;;;;;;15.73;6.28;;;;;;;;;;5012848;28;20228;-84
2023/09/06 05:50:34;;;;;;;12.75;6.35;;;;;;;;;;5005308;28;20777;-83
2023/09/06 05:53:01;;;;;;;12.43;5.90;;;;;;;;;;4993529;28;20201;-82
2023/09/06 05:55:28;;;;;;;15.45;6.47;;;;;;;;;;4993347;28;20297;-83
2023/09/06 05:57:55;;;;;;;16.00;5.93;;;;;;;;;;4988212;28;20315;-84
2023/09/06 06:00:28;;;;;;;16.58;5.82;;;;;;;;;;5006319;28;20255;-82
2023/09/06 06:02:58;;;;;;;14.60;6.43;;;;;;;;;;5007816;28;20670;-82
2023/09/06 06:05:25;;;;;;;17.02;6.40;;;;;;;;;;5009081;28;20565;-83
2023/09/06 06:07:53;;;;;;;10.25;5.97;;;;;;;;;;5003327;28;20201;-83
2023/09/06 06:10:20;;;;;;;21.73;6.68;;;;;;;;;;5006541;28;20687;-83
2023/09/06 06:12:47;;;;;;;16.50;6.75;;;;;;;;;;5007898;28;20275;-82
2023/09/06 06:15:15;;;;;;;13.80;5.88;;;;;;;;;;5007654;28;20744;-84
2023/09/06 06:17:44;;;;;;;11.70;5.80;;;;;;;;;;5007187;28;20209;-82
2023/09/06 06:20:12;;;;;;;15.52;6.15;;;;;;;;;;5008089;28;20284;-83
2023/09/06 06:22:39;;;;;;;10.98;5.90;;;;;;;;;;5007379;28;20324;-84
2023/09/06 06:25:07;;;;;;;9.90;5.65;;;;;;;;;;5007726;28;20263;-83
2023/09/06 06:27:34;;;;;;;13.27;6.00;;;;;;;;;;5006986;28;20320;-83
2023/09/06 06:30:05;;;;;;;8.73;5.55;;;;;;;;;;5005096;28;20573;-83
2023/09/06 06:32:32;;;;;;;19.48;6.75;;;;;;;;;;5006345;28;20209;-84
2023/09/06 06:35:05;;;;;;;13.32;6.07;;;;;;;;;;5004530;28;20204;-83
2023/09/06 06:37:32;;;;;;;17.20;6.65;;;;;;;;;;5006032;28;20209;-85
2023/09/06 06:40:00;;;;;;;14.25;6.43;;;;;;;;;;5007869;28;20662;-84
2023/09/06 06:42:28;;;;;;;17.10;6.28;;;;;;;;;;5007114;28;20359;-83
2023/09/06 06:44:55;;;;;;;15.77;6.32;;;;;;;;;;5007050;28;20193;-83
2023/09/06 06:47:22;;;;;;;21.95;6.80;;;;;;;;;;5006272;28;20201;-81
2023/09/06 06:49:51;;;;;;;15.15;5.70;;;;;;;;;;5007334;28;20223;-81
2023/09/06 06:52:20;;;;;;;19.92;6.65;;;;;;;;;;5006984;28;20301;-82
2023/09/06 06:54:47;;;;;;;14.63;5.95;;;;;;;;;;5006822;28;20591;-82
2023/09/06 06:57:15;;;;;;;15.10;6.45;;;;;;;;;;5006639;28;20297;-83
2023/09/06 06:59:42;;;;;;;13.77;5.35;;;;;;;;;;5006699;28;20260;-83
2023/09/06 07:02:10;;;;;;;14.85;5.63;;;;;;;;;;5007129;28;20268;-82
2023/09/06 07:04:37;;;;;;;12.55;6.07;;;;;;;;;;5006625;28;20628;-82
2023/09/06 07:07:05;;;;;;;13.88;5.40;;;;;;;;;;5006770;28;20746;-82
2023/09/06 07:09:33;;;;;;;13.98;5.18;;;;;;;;;;5007290;28;20201;-83
2023/09/06 07:12:00;;;;;;;14.10;5.38;;;;;;;;;;5006451;28;20772;-83
2023/09/06 07:14:28;;;;;;;15.35;4.93;;;;;;;;;;5007619;28;20247;-84
2023/09/06 07:16:55;;;;;;;16.52;5.70;;;;;;;;;;5007095;28;20303;-84
2023/09/06 07:19:23;;;;;;;13.55;4.72;;;;;;;;;;5007591;28;20213;-83
2023/09/06 07:21:50;;;;;;;18.08;5.28;;;;;;;;;;5007462;28;20276;-84
2023/09/06 07:24:17;;;;;;;12.05;5.18;;;;;;;;;;5008753;28;20328;-84
2023/09/06 07:26:46;;;;;;;15.00;5.28;;;;;;;;;;5012904;28;20245;-84
2023/09/06 07:29:13;;;;;;;21.42;4.85;;;;;;;;;;5013892;28;20212;-83
2023/09/06 07:31:40;;;;;;;14.82;4.70;;;;;;;;;;5013458;28;20628;-84
2023/09/06 07:34:07;;;;;;;12.73;4.43;;;;;;;;;;5013598;28;20635;-84
2023/09/06 07:36:34;;;;;;;10.25;3.92;;;;;;;;;;5012746;28;20200;-84
2023/09/06 07:39:02;;;;;;;13.07;4.15;;;;;;;;;;5013811;28;20291;-84
2023/09/06 07:41:29;;;;;;;11.18;4.60;;;;;;;;;;5012584;28;20282;-85
2023/09/06 07:43:58;;;;;;;12.13;4.45;;;;;;;;;;5013504;28;20209;-85
2023/09/06 07:46:28;;;;;;;14.23;5.15;;;;;;;;;;5013811;28;20204;-83
2023/09/06 07:48:55;;;;;;;13.57;4.80;;;;;;;;;;5014955;28;20264;-84
2023/09/06 07:51:23;;;;;;;14.90;4.15;;;;;;;;;;5013336;28;20654;-85
2023/09/06 07:53:50;;;;;;;18.63;4.43;;;;;;;;;;5012790;28;20204;-85
2023/09/06 07:56:18;;;;;;;16.73;4.45;;;;;;;;;;5013160;28;20331;-84
2023/09/06 07:58:45;;;;;;;13.75;4.45;;;;;;;;;;5011665;28;20239;-86
2023/09/06 08:01:13;;;;;;;13.60;4.20;;;;;;;;;;5013073;28;20283;-84
2023/09/06 08:03:41;;;;;;;14.73;3.97;;;;;;;;;;5012770;28;20259;-86
2023/09/06 08:06:08;;;;;;;10.27;3.72;;;;;;;;;;5012329;28;20276;-84
2023/09/06 08:08:35;;;;;;;14.82;3.75;;;;;;;;;;5012603;28;20237;-84
2023/09/06 08:11:04;;;;;;;11.45;4.18;;;;;;;;;;5010356;28;20255;-84
2023/09/06 08:13:31;;;;;;;14.40;3.92;;;;;;;;;;5015273;28;20295;-85
2023/09/06 08:15:58;;;;;;;14.50;3.40;;;;;;;;;;5009198;28;20221;-85
2023/09/06 08:18:28;;;;;;;15.88;3.85;;;;;;;;;;5014646;28;20311;-84
2023/09/06 08:20:55;;;;;;;13.63;3.47;;;;;;;;;;5017095;28;20263;-86
2023/09/06 08:23:22;;;;;;;9.82;2.90;;;;;;;;;;5017835;28;20288;-86
2023/09/06 08:25:49;;;;;;;14.07;3.17;;;;;;;;;;5018263;28;20244;-86
2023/09/06 08:28:18;;;;;;;10.98;2.90;;;;;;;;;;5017509;28;20197;-86
2023/09/06 08:30:46;;;;;;;14.13;3.45;;;;;;;;;;5017663;28;20207;-87
2023/09/06 08:33:13;;;;;;;16.63;3.47;;;;;;;;;;5017945;28;20208;-87
2023/09/06 08:35:42;;;;;;;7.40;2.97;;;;;;;;;;5024258;28;20216;-86
2023/09/06 08:38:10;;;;;;;8.38;2.85;;;;;;;;;;5034234;28;20589;-87
2023/09/06 08:40:37;;;;;;;9.13;2.30;;;;;;;;;;5034534;28;20201;-87
2023/09/06 08:43:05;;;;;;;10.00;2.60;;;;;;;;;;5034088;28;20258;-87
2023/09/06 08:45:33;;;;;;;9.75;2.60;;;;;;;;;;5024904;28;20671;-87
2023/09/06 08:48:00;;;;;;;6.82;1.95;;;;;;;;;;5004221;28;20296;-86
2023/09/06 08:50:28;;;;;;;10.15;2.83;;;;;;;;;;4999268;28;20291;-86
2023/09/06 08:52:57;;;;;;;13.52;2.70;;;;;;;;;;5014373;28;20243;-87
2023/09/06 08:55:24;;;;;;;6.13;2.22;;;;;;;;;;5014512;28;20198;-87
2023/09/06 08:57:52;;;;;;;8.65;2.28;;;;;;;;;;5014167;28;20229;-89
2023/09/06 09:00:23;;;;;;;9.95;3.05;;;;;;;;;;5014475;28;20713;-88
2023/09/06 09:02:51;;;;;;;6.80;2.10;;;;;;;;;;5014481;28;20236;-87
2023/09/06 09:05:21;;;;;;;6.63;2.60;;;;;;;;;;5014410;28;20197;-87
2023/09/06 09:07:50;;;;;;;6.85;2.30;;;;;;;;;;5006748;28;20572;-86
2023/09/06 09:10:20;;;;;;;7.20;2.30;;;;;;;;;;5014018;28;20207;-86
2023/09/06 09:12:48;;;;;;;7.28;1.70;;;;;;;;;;5013971;28;20198;-86
2023/09/06 09:15:16;;;;;;;6.57;2.30;;;;;;;;;;5014181;28;20573;-87
2023/09/06 09:17:43;;;;;;;6.80;2.00;;;;;;;;;;5013701;28;20209;-86
2023/09/06 09:20:11;;;;;;;10.23;2.20;;;;;;;;;;5013810;28;20289;-87
2023/09/06 09:22:39;;;;;;;6.55;2.30;;;;;;;;;;5013847;28;20228;-88
2023/09/06 09:25:14;;;;;;;7.85;2.20;;;;;;;;;;5013824;28;20201;-88
2023/09/06 09:27:43;;;;;;;6.80;2.25;;;;;;;;;;5014279;28;20287;-88
2023/09/06 09:30:14;;;;;;;10.15;2.33;;;;;;;;;;5014970;28;20201;-87
2023/09/06 09:32:41;;;;;;;6.38;2.08;;;;;;;;;;5009934;28;20673;-89
2023/09/06 09:35:10;;;;;;;6.57;2.10;;;;;;;;;;5002086;28;20224;-89
2023/09/06 09:37:38;;;;;;;8.30;1.95;;;;;;;;;;4994844;28;20201;-90
2023/09/06 09:40:16;;;;;;;7.32;2.40;;;;;;;;;;4994457;28;20693;-90
2023/09/06 09:42:54;;;;;;;6.43;2.28;;;;;;;;;;4996858;28;20730;-90
2023/09/06 09:45:22;;;;;;;11.65;2.83;;;;;;;;;;5006475;28;20673;-87
2023/09/06 09:47:49;;;;;;;12.90;3.00;;;;;;;;;;4993723;28;20754;-87
2023/09/06 09:50:17;;;;;;;10.95;2.50;;;;;;;;;;5012875;28;20741;-86
2023/09/06 09:52:45;;;;;;;7.40;2.40;;;;;;;;;;4999341;28;20233;-89
2023/09/06 09:55:15;;;;;;;8.65;2.33;;;;;;;;;;4993969;28;20232;-88
2023/09/06 09:57:43;;;;;;;10.68;2.38;;;;;;;;;;5009790;28;20262;-88
2023/09/06 10:00:13;;;;;;;10.38;2.35;;;;;;;;;;5013381;28;20296;-88
2023/09/06 10:02:41;;;;;;;14.80;2.67;;;;;;;;;;5014363;28;20579;-89
2023/09/06 10:05:12;;;;;;;14.25;3.20;;;;;;;;;;5013247;28;20211;-88
2023/09/06 10:07:40;;;;;;;12.68;2.97;;;;;;;;;;5013668;28;20201;-85
2023/09/06 10:10:10;;;;;;;9.18;2.65;;;;;;;;;;5013795;28;20291;-88
2023/09/06 10:12:39;;;;;;;11.10;2.90;;;;;;;;;;5014906;28;20196;-89
2023/09/06 10:15:06;;;;;;;14.73;3.22;;;;;;;;;;5014467;28;20303;-90
2023/09/06 10:17:35;;;;;;;14.43;3.20;;;;;;;;;;5014300;28;20238;-91
2023/09/06 10:20:03;;;;;;;13.38;3.35;;;;;;;;;;5014433;28;20223;-90
2023/09/06 10:22:31;;;;;;;21.40;3.90;;;;;;;;;;5015591;28;20657;-88
2023/09/06 10:25:06;;;;;;;17.13;3.60;;;;;;;;;;5013506;28;20291;-87
2023/09/06 10:27:33;;;;;;;14.82;2.80;;;;;;;;;;5013152;28;20196;-86
2023/09/06 10:30:01;;;;;;;14.77;3.35;;;;;;;;;;5017636;28;20287;-86
2023/09/06 10:32:41;;;;;;;13.60;3.10;;;;;;;;;;5012906;28;20287;-85
2023/09/06 10:35:22;;;;;;;12.55;3.22;;;;;;;;;;5013148;28;20189;-84
2023/09/06 10:38:05;;;;;;;9.68;2.97;;;;;;;;;;5012506;28;20192;-85
2023/09/06 10:40:53;;;;;;;10.77;2.60;;;;;;;;;;5012873;28;20239;-87
2023/09/06 10:43:22;;;;;;;14.93;3.88;;;;;;;;;;5009536;28;20240;-83
2023/09/06 10:45:56;;;;;;;14.75;4.03;;;;;;;;;;5020215;28;20192;-84
2023/09/06 10:48:25;;;;;;;12.73;3.47;;;;;;;;;;5017737;28;20208;-88
2023/09/06 10:51:06;;;;;;;14.07;4.28;;;;;;;;;;5018829;28;20189;-83
2023/09/06 10:53:34;;;;;;;16.92;4.20;;;;;;;;;;4997710;28;20196;-84
2023/09/06 10:56:02;;;;;;;24.95;4.30;;;;;;;;;;5027093;28;20196;-84
2023/09/06 10:58:30;;;;;;;20.10;4.18;;;;;;;;;;5036100;28;20210;-85
2023/09/06 11:01:16;;;;;;;22.35;4.88;;;;;;;;;;5024908;28;20326;-86
2023/09/06 11:03:48;;;;;;;16.77;4.28;;;;;;;;;;4993255;28;20251;-83
2023/09/06 11:06:15;;;;;;;23.35;4.70;;;;;;;;;;5009244;28;20209;-85
2023/09/06 11:08:43;;;;;;;22.85;4.53;;;;;;;;;;5010074;28;20200;-84
2023/09/06 11:11:13;;;;;;;26.23;5.25;;;;;;;;;;5008510;28;20279;-85
2023/09/06 11:13:42;;;;;;;17.80;4.65;;;;;;;;;;5016296;28;20274;-87
2023/09/06 11:16:12;;;;;;;21.35;4.65;;;;;;;;;;5012684;28;20236;-89
2023/09/06 11:18:48;;;;;;;27.50;5.28;;;;;;;;;;5010579;28;20284;-87
2023/09/06 11:21:18;;;;;;;26.27;4.72;;;;;;;;;;5011672;28;20291;-88
2023/09/06 11:23:46;;;;;;;25.00;4.72;;;;;;;;;;5013073;28;20697;-87
2023/09/06 11:26:13;;;;;;;20.85;4.53;;;;;;;;;;5008798;28;20286;-87
2023/09/06 11:28:42;;;;;;;17.70;4.57;;;;;;;;;;5008557;28;20189;-88
2023/09/06 11:31:20;;;;;;;22.85;5.50;;;;;;;;;;4999773;28;20202;-88
2023/09/06 11:33:53;;;;;;;23.00;5.00;;;;;;;;;;4995012;28;20205;-88
2023/09/06 11:36:21;;;;;;;27.63;4.90;;;;;;;;;;4993560;28;20208;-88
2023/09/06 11:38:49;;;;;;;28.77;5.82;;;;;;;;;;5004109;28;20232;-88
2023/09/06 11:41:16;;;;;;;23.05;4.32;;;;;;;;;;5014035;28;20201;-87
2023/09/06 11:43:48;;;;;;;24.55;5.20;;;;;;;;;;5012697;28;20244;-90
2023/09/06 11:46:17;;;;;;;19.17;4.80;;;;;;;;;;4995362;28;20204;-93
2023/09/06 11:48:44;;;;;;;19.23;5.93;;;;;;;;;;5014763;28;20623;-86
2023/09/06 11:51:13;;;;;;;20.98;5.20;;;;;;;;;;4995419;28;20224;-87
2023/09/06 11:53:43;;;;;;;30.80;6.53;;;;;;;;;;5012856;28;20232;-87
2023/09/06 11:56:13;;;;;;;33.58;6.03;;;;;;;;;;5013180;28;20771;-85
2023/09/06 11:58:47;;;;;;;25.35;5.03;;;;;;;;;;5012068;28;20197;-86
2023/09/06 12:01:20;;;;;;;18.73;5.20;;;;;;;;;;5011765;28;20302;-86
2023/09/06 12:03:48;;;;;;;27.65;5.68;;;;;;;;;;5011743;28;20236;-86
2023/09/06 12:06:17;;;;;;;33.80;5.45;;;;;;;;;;5011994;28;20255;-87
2023/09/06 12:08:44;;;;;;;23.17;4.90;;;;;;;;;;5012461;28;20335;-84
2023/09/06 12:11:18;;;;;;;22.20;5.88;;;;;;;;;;5013971;28;20228;-85
2023/09/06 12:13:45;;;;;;;17.63;4.25;;;;;;;;;;5015969;28;20196;-86
2023/09/06 12:16:12;;;;;;;15.85;4.40;;;;;;;;;;5015903;28;20197;-86
2023/09/06 12:18:40;;;;;;;16.35;4.85;;;;;;;;;;5015413;28;20573;-85
2023/09/06 12:21:07;;;;;;;20.83;4.40;;;;;;;;;;5015473;28;20236;-86
2023/09/06 12:23:37;;;;;;;19.88;5.07;;;;;;;;;;5015778;28;20319;-85
2023/09/06 12:26:04;;;;;;;21.83;5.05;;;;;;;;;;5015807;28;20231;-85
2023/09/06 12:28:32;;;;;;;20.55;4.95;;;;;;;;;;5014923;28;20236;-85
2023/09/06 12:31:02;;;;;;;17.17;4.65;;;;;;;;;;5011983;28;20224;-85
2023/09/06 12:33:30;;;;;;;26.20;5.07;;;;;;;;;;5014745;28;20223;-86
2023/09/06 12:36:00;;;;;;;21.08;5.00;;;;;;;;;;5014645;28;20203;-86
2023/09/06 12:38:29;;;;;;;22.17;4.72;;;;;;;;;;5014899;28;20208;-87
2023/09/06 12:40:57;;;;;;;39.75;6.38;;;;;;;;;;5013697;28;20258;-86
2023/09/06 12:43:26;;;;;;;21.80;5.03;;;;;;;;;;5014347;28;20251;-86
2023/09/06 12:45:53;;;;;;;22.73;5.28;;;;;;;;;;5014409;28;20208;-86
2023/09/06 12:48:22;;;;;;;38.00;5.88;;;;;;;;;;5013920;28;20201;-86
2023/09/06 12:50:50;;;;;;;29.65;5.53;;;;;;;;;;5014306;28;20640;-85
2023/09/06 12:53:18;;;;;;;27.33;5.43;;;;;;;;;;5014389;28;20193;-85
2023/09/06 12:55:45;;;;;;;21.75;5.25;;;;;;;;;;5014179;28;20228;-85
2023/09/06 12:58:14;;;;;;;21.75;5.28;;;;;;;;;;5013934;28;20640;-86
2023/09/06 13:00:41;;;;;;;61.38;7.25;;;;;;;;;;5013501;28;20236;-85
2023/09/06 13:03:09;;;;;;;52.08;7.13;;;;;;;;;;5014234;28;20290;-86
2023/09/06 13:05:36;;;;;;;35.65;5.95;;;;;;;;;;5013993;28;20243;-85
2023/09/06 13:08:03;;;;;;;26.13;6.30;;;;;;;;;;5013680;28;20673;-84
2023/09/06 13:10:31;;;;;;;23.40;5.60;;;;;;;;;;5014029;28;20282;-84
2023/09/06 13:12:58;;;;;;;33.45;5.72;;;;;;;;;;5013686;28;20208;-86
2023/09/06 13:15:26;;;;;;;29.77;5.88;;;;;;;;;;5014878;28;20231;-86
2023/09/06 13:17:54;;;;;;;26.45;6.10;;;;;;;;;;5013311;28;20291;-85
2023/09/06 13:20:21;;;;;;;26.02;5.10;;;;;;;;;;5013845;28;20303;-86
2023/09/06 13:22:48;;;;;;;25.60;6.53;;;;;;;;;;5012196;28;20283;-87
2023/09/06 13:25:16;;;;;;;27.30;6.68;;;;;;;;;;4998903;28;20275;-85
2023/09/06 13:27:43;;;;;;;27.23;5.82;;;;;;;;;;5014048;28;20283;-86
2023/09/06 13:30:11;;;;;;;22.75;5.75;;;;;;;;;;5013235;28;20205;-85
2023/09/06 13:32:39;;;;;;;28.02;5.85;;;;;;;;;;5013063;28;20219;-85
2023/09/06 13:35:07;;;;;;;49.50;6.57;;;;;;;;;;5012427;28;20650;-85
2023/09/06 13:37:34;;;;;;;145.45;12.52;;;;;;;;;;5008646;28;20292;-84
2023/09/06 13:40:02;;;;;;;49.97;8.30;;;;;;;;;;5010951;28;20239;-84
2023/09/06 13:42:30;;;;;;;23.50;5.45;;;;;;;;;;5012580;28;20284;-87
2023/09/06 13:44:57;;;;;;;33.47;6.07;;;;;;;;;;5010588;28;20311;-85
2023/09/06 13:47:24;;;;;;;32.40;6.47;;;;;;;;;;5011929;28;20299;-84
2023/09/06 13:49:53;;;;;;;26.33;6.03;;;;;;;;;;5011909;28;20243;-85
2023/09/06 13:52:20;;;;;;;22.75;6.18;;;;;;;;;;5012811;28;20636;-86
2023/09/06 13:54:47;;;;;;;32.08;6.15;;;;;;;;;;5008897;28;20262;-84
2023/09/06 13:57:15;;;;;;;24.73;6.43;;;;;;;;;;5011779;28;20283;-86
2023/09/06 13:59:42;;;;;;;30.70;6.30;;;;;;;;;;5004616;28;20224;-87
2023/09/06 14:02:10;;;;;;;29.15;5.93;;;;;;;;;;5007834;28;20772;-87
2023/09/06 14:04:37;;;;;;;27.20;5.38;;;;;;;;;;5012294;28;20228;-85
2023/09/06 14:07:06;;;;;;;23.73;5.15;;;;;;;;;;5012642;28;20291;-85
2023/09/06 14:09:33;;;;;;;25.58;5.90;;;;;;;;;;5002917;28;20201;-85
2023/09/06 14:12:00;;;;;;;27.83;6.25;;;;;;;;;;5010044;28;20287;-85
2023/09/06 14:14:27;;;;;;;29.40;6.40;;;;;;;;;;5012518;28;20275;-82
2023/09/06 14:16:55;;;;;;;34.88;6.68;;;;;;;;;;5011385;28;20287;-86
2023/09/06 14:19:24;;;;;;;34.50;6.88;;;;;;;;;;5011662;28;20204;-85
2023/09/06 14:21:52;;;;;;;29.35;5.78;;;;;;;;;;5009597;28;20752;-85
2023/09/06 14:24:20;;;;;;;22.70;6.10;;;;;;;;;;5012161;28;20232;-83
2023/09/06 14:26:48;;;;;;;26.45;5.57;;;;;;;;;;5011771;28;20292;-86
2023/09/06 14:29:15;;;;;;;31.10;5.82;;;;;;;;;;5012332;28;20205;-87
2023/09/06 14:31:42;;;;;;;26.15;6.20;;;;;;;;;;5010569;28;20298;-87
2023/09/06 14:34:11;;;;;;;29.77;6.45;;;;;;;;;;5000640;28;20236;-88
2023/09/06 14:36:39;;;;;;;25.80;5.90;;;;;;;;;;4993364;28;20293;-88
2023/09/06 14:39:06;;;;;;;31.70;6.43;;;;;;;;;;5012694;28;20279;-87
2023/09/06 14:41:35;;;;;;;35.58;6.15;;;;;;;;;;5013360;28;20220;-85